Time;durP1;ratioP1;P1;durP2;ratioP2;P2;SDS_P1;SDS_P2;PMS_P1;PMS_P2;Temp;Humidity;BMP_temperature;BMP_pressure;BME280_temperature;BME280_humidity;BME280_pressure;Samples;Min_cycle;Max_cycle;Signal;HPM_P1;HPM_P2
2022/05/31 00:00:46;;;;;;;2.33;2.03;;;12.30;99.90;;;;;;6261736;28;20300;-68
2022/05/31 00:03:52;;;;;;;2.05;1.98;;;12.20;99.90;;;;;;6261640;28;20347;-69
2022/05/31 00:06:58;;;;;;;1.77;1.77;;;12.30;99.90;;;;;;6261936;28;20271;-68
2022/05/31 00:10:04;;;;;;;1.90;1.90;;;12.30;99.90;;;;;;6260898;28;20558;-67
2022/05/31 00:13:10;;;;;;;2.20;2.20;;;12.30;99.90;;;;;;6261538;28;20307;-69
2022/05/31 00:16:15;;;;;;;2.15;2.05;;;12.30;99.90;;;;;;6271967;28;20271;-66
2022/05/31 00:19:21;;;;;;;2.40;2.40;;;12.30;99.90;;;;;;6274969;28;20296;-66
2022/05/31 00:22:34;;;;;;;2.38;2.38;;;12.30;99.90;;;;;;6269527;28;20272;-70
2022/05/31 00:25:39;;;;;;;2.28;2.17;;;12.30;99.90;;;;;;6260770;28;20436;-69
2022/05/31 00:28:45;;;;;;;2.10;2.10;;;12.40;99.90;;;;;;6258880;28;20303;-67
2022/05/31 00:31:51;;;;;;;2.00;2.00;;;12.50;99.90;;;;;;6260636;28;20272;-68
2022/05/31 00:34:59;;;;;;;2.47;2.30;;;12.50;99.90;;;;;;6275515;28;20304;-67
2022/05/31 00:38:08;;;;;;;2.13;2.13;;;12.50;99.90;;;;;;6260136;28;20288;-67
2022/05/31 00:41:26;;;;;;;2.28;2.28;;;12.60;99.90;;;;;;6275886;28;20365;-68
2022/05/31 00:44:32;;;;;;;2.80;2.00;;;12.50;99.90;;;;;;6258776;28;20474;-68
2022/05/31 00:47:37;;;;;;;1.90;1.90;;;12.40;99.90;;;;;;6275078;28;20267;-68
2022/05/31 00:50:46;;;;;;;2.22;2.22;;;12.40;99.90;;;;;;6275860;28;20296;-68
2022/05/31 00:54:03;;;;;;;1.98;1.98;;;12.30;99.90;;;;;;6259968;28;20467;-68
2022/05/31 00:57:09;;;;;;;1.98;1.98;;;12.30;99.90;;;;;;6260054;28;20563;-68
2022/05/31 01:00:17;;;;;;;2.13;2.10;;;12.30;99.90;;;;;;6259673;28;20444;-68
2022/05/31 01:03:24;;;;;;;1.98;1.92;;;12.30;99.90;;;;;;6260156;28;20291;-68
2022/05/31 01:06:30;;;;;;;2.13;2.13;;;12.40;99.90;;;;;;6259188;28;20272;-68
2022/05/31 01:09:37;;;;;;;2.20;2.10;;;12.40;99.90;;;;;;6258576;28;20371;-68
2022/05/31 01:13:02;;;;;;;2.22;2.13;;;12.30;99.90;;;;;;6241655;28;20292;-68
2022/05/31 01:16:26;;;;;;;2.00;1.90;;;12.20;99.90;;;;;;6260225;28;20339;-68
2022/05/31 01:20:00;;;;;;;2.08;1.98;;;12.20;99.90;;;;;;6239859;28;20443;-68
2022/05/31 01:23:19;;;;;;;1.83;1.83;;;12.10;99.90;;;;;;6249803;28;20292;-68
2022/05/31 01:26:33;;;;;;;1.70;1.70;;;12.10;99.90;;;;;;6266646;28;20272;-68
2022/05/31 01:29:40;;;;;;;2.00;2.00;;;12.00;99.90;;;;;;6234659;28;20301;-68
2022/05/31 01:33:00;;;;;;;2.03;2.03;;;11.90;99.90;;;;;;6233566;28;20323;-68
2022/05/31 01:36:10;;;;;;;2.50;2.40;;;11.90;99.90;;;;;;6250030;28;20272;-68
2022/05/31 01:39:22;;;;;;;2.35;2.30;;;11.90;99.90;;;;;;6234992;28;20304;-68
2022/05/31 01:42:33;;;;;;;2.10;2.10;;;11.80;99.90;;;;;;6234825;28;20617;-69
2022/05/31 01:45:43;;;;;;;2.25;2.20;;;11.80;99.90;;;;;;6250355;28;20272;-68
2022/05/31 01:48:50;;;;;;;1.98;1.98;;;11.80;99.90;;;;;;6249902;28;20440;-68
2022/05/31 01:51:55;;;;;;;2.10;2.10;;;11.90;99.90;;;;;;6250146;28;20292;-68
2022/05/31 01:55:02;;;;;;;2.22;2.13;;;11.90;99.90;;;;;;6235629;28;20301;-68
2022/05/31 01:58:15;;;;;;;2.00;1.92;;;11.90;99.90;;;;;;6250335;28;20304;-68
2022/05/31 02:01:21;;;;;;;2.22;2.20;;;11.90;99.90;;;;;;6250573;28;20349;-68
2022/05/31 02:04:26;;;;;;;1.85;1.85;;;11.90;99.90;;;;;;6235310;28;20308;-68
2022/05/31 02:07:32;;;;;;;2.50;2.40;;;11.80;99.90;;;;;;6234598;28;20268;-68
2022/05/31 02:10:39;;;;;;;1.98;1.98;;;11.80;99.90;;;;;;6261994;28;20467;-68
2022/05/31 02:13:48;;;;;;;2.25;2.15;;;11.70;99.90;;;;;;6306454;28;20303;-68
2022/05/31 02:16:59;;;;;;;2.10;2.10;;;11.70;99.90;;;;;;6320593;28;20271;-68
2022/05/31 02:20:33;;;;;;;2.08;2.00;;;11.70;99.90;;;;;;6250441;28;20355;-67
2022/05/31 02:23:39;;;;;;;2.08;2.08;;;11.60;99.90;;;;;;6287769;28;20299;-67
2022/05/31 02:26:46;;;;;;;2.00;2.00;;;11.70;99.90;;;;;;6288493;28;20298;-67
2022/05/31 02:29:52;;;;;;;1.90;1.90;;;11.70;99.90;;;;;;6302931;28;20294;-68
2022/05/31 02:32:57;;;;;;;2.45;2.35;;;11.60;99.90;;;;;;6287793;28;20299;-68
2022/05/31 02:36:02;;;;;;;2.03;2.03;;;11.70;99.90;;;;;;6287742;28;20275;-68
2022/05/31 02:39:11;;;;;;;2.20;2.20;;;11.70;99.90;;;;;;6287159;28;20299;-68
2022/05/31 02:42:20;;;;;;;2.03;2.03;;;11.60;99.90;;;;;;6303167;28;20407;-70
2022/05/31 02:45:25;;;;;;;1.98;1.98;;;11.60;99.90;;;;;;6318520;28;20275;-67
2022/05/31 02:48:32;;;;;;;2.17;2.10;;;11.60;99.90;;;;;;6319050;28;20294;-68
2022/05/31 02:51:40;;;;;;;2.40;2.30;;;11.50;99.90;;;;;;6286889;28;20461;-67
2022/05/31 02:54:46;;;;;;;2.10;2.10;;;11.60;99.90;;;;;;6318866;28;20366;-68
2022/05/31 02:57:59;;;;;;;2.38;2.28;;;11.50;99.90;;;;;;6282321;28;20291;-68
2022/05/31 03:01:26;;;;;;;2.53;2.40;;;11.50;99.90;;;;;;6262307;28;20486;-68
2022/05/31 03:04:55;;;;;;;2.35;2.30;;;11.40;99.90;;;;;;6276448;28;20275;-67
2022/05/31 03:08:19;;;;;;;3.45;3.15;;;11.40;99.90;;;;;;6286726;28;20582;-68
2022/05/31 03:11:49;;;;;;;2.97;2.88;;;11.40;99.90;;;;;;6286884;28;20438;-68
2022/05/31 03:14:59;;;;;;;2.80;2.70;;;11.30;99.90;;;;;;6301470;28;20294;-68
2022/05/31 03:18:09;;;;;;;2.95;2.85;;;11.40;99.90;;;;;;6318765;28;20424;-67
2022/05/31 03:21:17;;;;;;;2.80;2.70;;;11.40;99.90;;;;;;6294183;28;20272;-70
2022/05/31 03:24:28;;;;;;;2.90;2.80;;;11.40;99.90;;;;;;6261352;28;20300;-68
2022/05/31 03:27:34;;;;;;;3.22;3.13;;;11.60;99.90;;;;;;6261430;28;20295;-67
2022/05/31 03:30:42;;;;;;;2.58;2.58;;;11.60;99.90;;;;;;6260681;28;20312;-68
2022/05/31 03:33:48;;;;;;;2.80;2.75;;;11.50;99.90;;;;;;6259969;28;20296;-67
2022/05/31 03:36:54;;;;;;;3.00;2.97;;;11.60;99.90;;;;;;6306837;28;20263;-68
2022/05/31 03:39:59;;;;;;;2.80;2.60;;;11.60;99.90;;;;;;6261882;28;20276;-68
2022/05/31 03:43:06;;;;;;;3.47;2.97;;;11.40;99.90;;;;;;6271147;28;20458;-67
2022/05/31 03:46:16;;;;;;;2.88;2.88;;;11.40;99.90;;;;;;6285193;28;20275;-68
2022/05/31 03:49:44;;;;;;;2.83;2.83;;;11.50;99.90;;;;;;6294170;28;20303;-68
2022/05/31 03:52:52;;;;;;;3.13;2.92;;;11.60;99.90;;;;;;6277589;28;20307;-68
2022/05/31 03:56:02;;;;;;;2.88;2.70;;;11.50;99.90;;;;;;6293183;28;20268;-68
2022/05/31 03:59:10;;;;;;;3.15;3.05;;;11.60;99.90;;;;;;6294922;28;20299;-68
2022/05/31 04:02:20;;;;;;;3.00;3.00;;;11.50;99.90;;;;;;6284470;28;20315;-69
2022/05/31 04:05:26;;;;;;;3.20;3.10;;;11.50;99.90;;;;;;6284666;28;20558;-68
2022/05/31 04:08:32;;;;;;;3.33;3.33;;;11.50;99.90;;;;;;6287192;28;20454;-68
2022/05/31 04:11:38;;;;;;;3.40;3.40;;;11.60;99.90;;;;;;6276359;28;20283;-68
2022/05/31 04:14:54;;;;;;;3.42;3.33;;;11.50;99.90;;;;;;6259487;28;20547;-68
2022/05/31 04:18:01;;;;;;;3.50;3.40;;;11.50;99.90;;;;;;6259650;28;20630;-68
2022/05/31 04:21:11;;;;;;;3.97;3.88;;;11.60;99.90;;;;;;6292654;28;20272;-68
2022/05/31 04:24:16;;;;;;;3.83;3.72;;;11.60;99.90;;;;;;6261086;28;20299;-68
2022/05/31 04:27:25;;;;;;;3.97;3.88;;;11.60;99.90;;;;;;6260401;28;20296;-68
2022/05/31 04:30:48;;;;;;;4.22;4.00;;;11.50;99.90;;;;;;6260829;28;20272;-68
2022/05/31 04:34:25;;;;;;;3.80;3.60;;;11.50;99.90;;;;;;6260976;28;20308;-69
2022/05/31 04:37:31;;;;;;;4.30;4.10;;;11.60;99.90;;;;;;6275564;28;20295;-68
2022/05/31 04:40:57;;;;;;;4.45;4.30;;;11.60;99.90;;;;;;6259920;28;20271;-68
2022/05/31 04:44:35;;;;;;;4.05;3.95;;;11.50;99.90;;;;;;6259084;28;20299;-68
2022/05/31 04:47:43;;;;;;;4.63;4.40;;;11.50;99.90;;;;;;6266614;28;20291;-68
2022/05/31 04:50:49;;;;;;;4.80;4.70;;;11.50;99.90;;;;;;6284389;28;20571;-68
2022/05/31 04:53:57;;;;;;;4.72;4.53;;;11.60;99.90;;;;;;6299478;28;20532;-68
2022/05/31 04:57:14;;;;;;;4.97;4.78;;;11.50;99.90;;;;;;6259815;28;20410;-67
2022/05/31 05:00:21;;;;;;;4.45;4.35;;;11.60;99.90;;;;;;6259176;28;20303;-68
2022/05/31 05:03:41;;;;;;;4.90;4.70;;;11.60;99.90;;;;;;6275237;28;20303;-68
2022/05/31 05:06:48;;;;;;;4.95;4.60;;;11.60;99.90;;;;;;6275662;28;20435;-68
2022/05/31 05:09:55;;;;;;;4.57;4.47;;;11.60;99.90;;;;;;6283379;28;20299;-68
2022/05/31 05:13:23;;;;;;;5.60;5.13;;;11.60;99.90;;;;;;6285277;28;20577;-69
2022/05/31 05:16:47;;;;;;;4.95;4.78;;;11.60;99.90;;;;;;6285378;28;20267;-68
2022/05/31 05:19:53;;;;;;;5.90;5.40;;;11.60;99.90;;;;;;6285159;28;20321;-68
2022/05/31 05:23:00;;;;;;;5.43;5.13;;;11.50;99.90;;;;;;6275014;28;20299;-68
2022/05/31 05:26:07;;;;;;;6.40;5.28;;;11.50;99.90;;;;;;6293513;28;20275;-68
2022/05/31 05:32:42;;;;;;;5.20;4.90;;;11.60;99.90;;;;;;6285747;28;20296;-69
2022/05/31 05:36:02;;;;;;;5.10;4.90;;;11.70;99.90;;;;;;6273039;28;20269;-68
2022/05/31 05:39:10;;;;;;;5.55;5.25;;;11.70;99.90;;;;;;6259291;28;20459;-68
2022/05/31 05:42:34;;;;;;;5.55;5.25;;;11.70;99.90;;;;;;6260126;28;20291;-68
2022/05/31 05:45:53;;;;;;;5.68;5.43;;;11.80;99.90;;;;;;6279983;28;20277;-69
2022/05/31 05:48:59;;;;;;;5.28;4.97;;;11.80;99.90;;;;;;6264714;28;20295;-67
2022/05/31 05:52:06;;;;;;;5.75;5.45;;;11.70;99.90;;;;;;6278648;28;20279;-69
2022/05/31 05:55:32;;;;;;;5.85;5.55;;;11.80;99.90;;;;;;6264395;28;20307;-68
2022/05/31 05:58:56;;;;;;;5.85;5.55;;;11.80;99.90;;;;;;6263983;28;20575;-67
2022/05/31 06:02:28;;;;;;;5.55;5.25;;;11.70;99.90;;;;;;6264241;28;20288;-68
2022/05/31 06:06:14;;;;;;;5.00;4.78;;;11.80;99.90;;;;;;6259941;28;20275;-68
2022/05/31 06:09:22;;;;;;;5.15;4.93;;;11.90;99.90;;;;;;6263358;28;20300;-68
2022/05/31 06:12:34;;;;;;;5.60;5.20;;;11.90;99.90;;;;;;6275334;28;20380;-68
2022/05/31 06:15:44;;;;;;;5.20;4.93;;;11.80;99.90;;;;;;6262678;28;20295;-68
2022/05/31 06:18:53;;;;;;;5.35;5.15;;;11.90;99.90;;;;;;6294673;28;20303;-70
2022/05/31 06:22:00;;;;;;;5.20;4.97;;;11.90;99.90;;;;;;6261891;28;20276;-69
2022/05/31 06:25:21;;;;;;;5.80;5.43;;;12.00;99.90;;;;;;6262903;28;20465;-69
2022/05/31 06:28:33;;;;;;;5.80;5.50;;;12.10;99.90;;;;;;6261955;28;20299;-69
2022/05/31 06:31:39;;;;;;;5.82;5.43;;;12.10;99.90;;;;;;6263019;28;20271;-69
2022/05/31 06:34:53;;;;;;;5.10;4.80;;;12.10;99.90;;;;;;6294958;28;20299;-69
2022/05/31 06:38:08;;;;;;;6.47;5.80;;;12.10;99.90;;;;;;6295007;28;20296;-67
2022/05/31 06:41:13;;;;;;;5.53;5.00;;;12.20;99.90;;;;;;6262335;28;20292;-69
2022/05/31 06:44:38;;;;;;;5.32;5.07;;;12.30;99.90;;;;;;6261853;28;20299;-68
2022/05/31 06:48:02;;;;;;;5.00;4.80;;;12.30;99.90;;;;;;6262862;28;20296;-68
2022/05/31 06:59:29;;;;;;;5.25;4.93;;;12.20;99.90;;;;;;6217595;28;20292;-68
2022/05/31 07:02:37;;;;;;;6.13;5.82;;;12.30;99.90;;;;;;6234591;28;20587;-69
2022/05/31 07:05:42;;;;;;;5.38;5.05;;;12.40;99.90;;;;;;6261326;28;20272;-68
2022/05/31 07:08:54;;;;;;;5.28;5.07;;;12.50;99.90;;;;;;6261378;28;20299;-69
2022/05/31 07:12:03;;;;;;;5.53;5.22;;;12.40;99.90;;;;;;6299140;28;20267;-69
2022/05/31 07:15:31;;;;;;;5.65;5.25;;;12.40;99.90;;;;;;6276225;28;20295;-68
2022/05/31 07:19:18;;;;;;;5.28;4.97;;;12.50;99.90;;;;;;6286777;28;20559;-68
2022/05/31 07:22:24;;;;;;;5.00;4.80;;;12.60;99.90;;;;;;6302211;28;20574;-68
2022/05/31 07:25:51;;;;;;;4.90;4.70;;;12.70;99.90;;;;;;6287314;28;20270;-68
2022/05/31 07:29:02;;;;;;;5.68;5.38;;;12.90;99.90;;;;;;6301890;28;20294;-69
2022/05/31 07:32:08;;;;;;;5.15;4.85;;;12.90;99.90;;;;;;6301746;28;20520;-68
2022/05/31 07:35:35;;;;;;;5.10;4.90;;;12.90;99.90;;;;;;6302345;28;20299;-68
2022/05/31 07:38:46;;;;;;;4.95;4.75;;;13.00;99.90;;;;;;6301945;28;20291;-67
2022/05/31 07:41:54;;;;;;;6.15;5.82;;;13.00;99.90;;;;;;6302188;28;20363;-68
2022/05/31 07:44:59;;;;;;;6.30;5.80;;;12.90;99.90;;;;;;6301559;28;20283;-69
2022/05/31 07:48:07;;;;;;;5.70;5.30;;;12.90;99.90;;;;;;6301043;28;20303;-69
2022/05/31 07:51:15;;;;;;;5.57;5.22;;;12.90;99.90;;;;;;6301990;28;20290;-68
2022/05/31 07:54:39;;;;;;;6.82;6.32;;;12.90;99.90;;;;;;6285849;28;20298;-68
2022/05/31 07:58:34;;;;;;;4.95;4.80;;;13.00;99.90;;;;;;6286077;28;20302;-69
2022/05/31 08:01:58;;;;;;;6.50;5.60;;;13.00;99.90;;;;;;6285167;28;20706;-69
2022/05/31 08:05:20;;;;;;;5.93;5.63;;;13.00;99.90;;;;;;6300719;28;20276;-68
2022/05/31 08:08:27;;;;;;;5.05;4.85;;;13.00;99.90;;;;;;6285559;28;20299;-67
2022/05/31 08:11:40;;;;;;;5.78;5.57;;;12.90;99.90;;;;;;6285758;28;20264;-68
2022/05/31 08:14:45;;;;;;;6.25;5.85;;;13.00;99.90;;;;;;6261715;28;20323;-67
2022/05/31 08:17:51;;;;;;;5.68;5.38;;;13.10;99.90;;;;;;6260936;28;20296;-69
2022/05/31 08:21:00;;;;;;;5.82;5.63;;;13.00;99.90;;;;;;6260848;28;20272;-68
2022/05/31 08:24:08;;;;;;;6.63;6.22;;;13.10;99.90;;;;;;6260829;28;20291;-68
2022/05/31 08:27:36;;;;;;;6.18;5.82;;;13.10;99.90;;;;;;6260778;28;20291;-68
2022/05/31 08:30:41;;;;;;;8.20;7.40;;;13.10;99.90;;;;;;6260867;28;20348;-67
2022/05/31 08:33:47;;;;;;;7.43;7.00;;;13.20;99.90;;;;;;6260393;28;20315;-68
2022/05/31 08:36:53;;;;;;;7.18;6.68;;;13.10;99.90;;;;;;6261049;28;20291;-69
2022/05/31 08:40:00;;;;;;;6.43;6.03;;;13.10;99.90;;;;;;6275733;28;20567;-68
2022/05/31 08:43:08;;;;;;;7.28;6.63;;;13.10;99.90;;;;;;6260765;28;20291;-68
2022/05/31 08:46:20;;;;;;;7.20;6.60;;;13.10;99.90;;;;;;6261069;28;20271;-69
2022/05/31 08:53:19;;;;;;;6.70;6.30;;;13.20;99.90;;;;;;6260870;28;20312;-67
2022/05/31 08:59:52;;;;;;;12.50;10.15;;;13.10;99.90;;;;;;6258919;28;20367;-69
2022/05/31 09:03:02;;;;;;;9.05;7.95;;;13.20;99.90;;;;;;6260254;28;20295;-69
2022/05/31 09:06:13;;;;;;;8.02;7.35;;;13.20;99.90;;;;;;6261040;28;20276;-68
2022/05/31 09:09:23;;;;;;;8.18;7.53;;;13.40;99.90;;;;;;6260613;28;20299;-68
2022/05/31 09:12:38;;;;;;;8.43;7.65;;;13.30;99.90;;;;;;6240246;28;20292;-68
2022/05/31 09:15:46;;;;;;;8.05;7.45;;;13.50;99.90;;;;;;6260087;28;20291;-69
2022/05/31 09:18:54;;;;;;;8.88;7.95;;;13.40;99.90;;;;;;6263900;28;20314;-70
2022/05/31 09:22:01;;;;;;;8.85;7.50;;;13.50;99.90;;;;;;6264917;28;20271;-70
2022/05/31 09:25:07;;;;;;;8.13;7.32;;;13.50;99.90;;;;;;6265341;28;20450;-68
2022/05/31 09:28:33;;;;;;;8.10;7.40;;;13.70;99.90;;;;;;6264993;28;20297;-68
2022/05/31 09:31:48;;;;;;;8.77;7.95;;;13.60;99.90;;;;;;6265432;28;20272;-70
2022/05/31 09:35:13;;;;;;;8.00;7.20;;;13.70;99.90;;;;;;6264670;28;20295;-68
2022/05/31 09:38:45;;;;;;;7.78;7.18;;;13.80;99.90;;;;;;6265616;28;20295;-68
2022/05/31 09:41:58;;;;;;;7.38;6.88;;;13.80;99.90;;;;;;6266463;28;20382;-68
2022/05/31 09:45:11;;;;;;;8.32;7.30;;;13.80;99.90;;;;;;6264998;28;20429;-68
2022/05/31 09:48:16;;;;;;;8.05;7.45;;;13.70;99.90;;;;;;6279400;28;20303;-68
2022/05/31 09:51:30;;;;;;;8.00;6.93;;;13.50;99.90;;;;;;6264521;28;20271;-69
2022/05/31 09:59:07;;;;;;;7.68;6.97;;;13.70;99.90;;;;;;6264389;28;20317;-69
2022/05/31 10:02:37;;;;;;;7.80;7.20;;;13.80;99.90;;;;;;6264333;28;20291;-67
2022/05/31 10:05:46;;;;;;;7.38;6.75;;;13.90;99.90;;;;;;6263203;28;20307;-69
2022/05/31 10:08:53;;;;;;;7.68;7.07;;;13.90;99.90;;;;;;6263508;28;20303;-68
2022/05/31 10:12:26;;;;;;;7.63;6.82;;;13.90;99.90;;;;;;6263944;28;20340;-70
2022/05/31 10:15:48;;;;;;;6.75;6.35;;;13.90;99.90;;;;;;6262979;28;20272;-70
2022/05/31 10:18:58;;;;;;;7.25;6.68;;;14.00;99.90;;;;;;6264094;28;20299;-69
2022/05/31 10:22:17;;;;;;;7.10;6.55;;;13.90;99.90;;;;;;6262904;28;20296;-68
2022/05/31 10:25:43;;;;;;;6.93;6.20;;;14.00;99.90;;;;;;6263941;28;20268;-68
2022/05/31 10:29:25;;;;;;;7.68;7.07;;;14.00;99.90;;;;;;6250901;28;20303;-68
2022/05/31 10:33:07;;;;;;;9.60;6.97;;;13.90;99.90;;;;;;6279239;28;20627;-69
2022/05/31 10:36:19;;;;;;;8.07;7.47;;;14.00;99.90;;;;;;6265385;28;20272;-69
2022/05/31 10:39:27;;;;;;;7.60;6.85;;;14.00;99.90;;;;;;6279528;28;20296;-67
2022/05/31 10:42:36;;;;;;;7.85;6.82;;;14.00;99.90;;;;;;6280608;28;20291;-70
2022/05/31 10:45:41;;;;;;;7.72;7.03;;;14.00;99.90;;;;;;6291466;28;20265;-66
2022/05/31 10:48:50;;;;;;;7.45;6.80;;;14.00;99.90;;;;;;6278310;28;20270;-67
2022/05/31 10:52:10;;;;;;;7.68;6.97;;;14.00;99.90;;;;;;6268816;28;20529;-70
2022/05/31 10:55:29;;;;;;;7.85;6.95;;;14.00;99.90;;;;;;6264047;28;20271;-68
2022/05/31 10:58:48;;;;;;;7.43;6.78;;;14.10;99.90;;;;;;6277451;28;20299;-67
2022/05/31 11:02:24;;;;;;;7.28;6.75;;;14.10;99.90;;;;;;6262513;28;20295;-69
2022/05/31 11:05:40;;;;;;;7.60;6.90;;;14.10;99.90;;;;;;6263186;28;20281;-68
2022/05/31 11:12:37;;;;;;;7.82;7.18;;;14.10;99.90;;;;;;6258421;28;20292;-68
2022/05/31 11:15:50;;;;;;;8.18;7.38;;;14.20;99.90;;;;;;6238267;28;20430;-68
2022/05/31 11:19:15;;;;;;;7.75;7.05;;;14.10;99.90;;;;;;6252807;28;20296;-68
2022/05/31 11:22:48;;;;;;;7.25;6.00;;;14.20;99.90;;;;;;6252931;28;20301;-68
2022/05/31 11:26:13;;;;;;;6.30;5.90;;;14.20;99.90;;;;;;6237757;28;20268;-70
2022/05/31 11:30:04;;;;;;;6.38;5.93;;;14.10;99.90;;;;;;6237868;28;20309;-67
2022/05/31 11:33:37;;;;;;;9.75;6.00;;;14.10;99.90;;;;;;6237925;28;20304;-69
2022/05/31 11:36:57;;;;;;;5.40;5.15;;;14.10;99.90;;;;;;6237761;28;20281;-68
2022/05/31 11:40:19;;;;;;;7.18;6.47;;;14.10;99.90;;;;;;6251814;28;20282;-70
2022/05/31 11:44:05;;;;;;;5.72;5.30;;;14.10;99.90;;;;;;6281612;28;20300;-69
2022/05/31 11:47:29;;;;;;;5.47;5.18;;;14.10;99.90;;;;;;6258850;28;20280;-70
2022/05/31 11:50:44;;;;;;;6.95;6.45;;;14.20;99.90;;;;;;6237735;28;20280;-68
2022/05/31 11:54:29;;;;;;;5.90;5.60;;;14.20;99.90;;;;;;6237341;28;20308;-69
2022/05/31 11:57:47;;;;;;;6.80;6.15;;;14.20;99.90;;;;;;6215246;28;20316;-69
2022/05/31 12:01:04;;;;;;;5.63;5.10;;;14.20;99.90;;;;;;6260683;28;20295;-69
2022/05/31 12:04:17;;;;;;;5.00;4.70;;;14.10;99.90;;;;;;6285933;28;20303;-68
2022/05/31 12:07:27;;;;;;;5.18;4.82;;;14.20;99.90;;;;;;6285861;28;20613;-68
2022/05/31 12:10:38;;;;;;;4.65;4.55;;;14.20;99.90;;;;;;6295880;28;20261;-69
2022/05/31 12:13:46;;;;;;;4.93;4.65;;;14.20;99.90;;;;;;6294988;28;20299;-68
2022/05/31 12:16:53;;;;;;;4.65;4.47;;;14.30;99.90;;;;;;6286203;28;20271;-69
2022/05/31 12:20:10;;;;;;;5.60;5.22;;;14.30;99.90;;;;;;6310082;28;20298;-69
2022/05/31 12:23:21;;;;;;;5.38;5.00;;;14.30;99.90;;;;;;6309692;28;20371;-68
2022/05/31 12:26:33;;;;;;;4.80;4.60;;;14.30;99.90;;;;;;6309442;28;20270;-70
2022/05/31 12:29:45;;;;;;;5.35;4.60;;;14.30;99.90;;;;;;6309416;28;20303;-68
2022/05/31 12:32:54;;;;;;;4.90;4.70;;;14.20;99.90;;;;;;6309575;28;20290;-68
2022/05/31 12:35:59;;;;;;;4.88;4.78;;;14.30;99.90;;;;;;6310355;28;20266;-68
2022/05/31 12:39:09;;;;;;;5.03;4.78;;;14.20;99.90;;;;;;6309536;28;20302;-68
2022/05/31 12:42:38;;;;;;;4.65;4.45;;;14.20;99.90;;;;;;6308400;28;20405;-68
2022/05/31 12:45:44;;;;;;;5.18;4.90;;;14.20;99.90;;;;;;6310306;28;20274;-67
2022/05/31 12:48:56;;;;;;;5.32;5.03;;;14.20;99.90;;;;;;6309919;28;20302;-68
2022/05/31 12:52:51;;;;;;;5.05;4.75;;;14.30;99.90;;;;;;6309044;28;20267;-68
2022/05/31 12:56:00;;;;;;;5.55;4.95;;;14.40;99.90;;;;;;6306515;28;20384;-68
2022/05/31 12:59:08;;;;;;;5.00;4.70;;;14.50;99.90;;;;;;6309488;28;20302;-68
2022/05/31 13:02:35;;;;;;;5.35;5.10;;;14.50;99.90;;;;;;6309909;28;20318;-67
2022/05/31 13:06:00;;;;;;;4.85;4.60;;;14.30;99.90;;;;;;6310060;28;20494;-68
2022/05/31 13:09:13;;;;;;;5.50;5.15;;;14.30;99.90;;;;;;6308725;28;20303;-68
2022/05/31 13:19:38;;;;;;;5.28;4.93;;;14.30;99.90;;;;;;6309511;28;20306;-69
2022/05/31 13:22:55;;;;;;;4.97;4.75;;;14.30;99.90;;;;;;6309643;28;20251;-68
2022/05/31 13:26:05;;;;;;;4.85;4.63;;;14.20;99.90;;;;;;6309978;28;20460;-68
2022/05/31 13:29:13;;;;;;;5.13;4.72;;;14.10;99.90;;;;;;6308956;28;20303;-68
2022/05/31 13:32:18;;;;;;;5.00;4.80;;;14.20;99.90;;;;;;6309283;28;20526;-68
2022/05/31 13:35:29;;;;;;;5.05;4.75;;;14.20;99.90;;;;;;6309884;28;20274;-69
2022/05/31 13:38:39;;;;;;;4.63;4.22;;;14.20;99.90;;;;;;6307628;28;20302;-69
2022/05/31 13:41:50;;;;;;;4.38;4.18;;;14.10;99.90;;;;;;6309135;28;20530;-69
2022/05/31 13:44:55;;;;;;;5.18;4.88;;;14.10;99.90;;;;;;6308667;28;20298;-69
2022/05/31 13:48:09;;;;;;;4.85;4.65;;;14.20;99.90;;;;;;6308840;28;20298;-69
2022/05/31 13:51:22;;;;;;;4.57;4.18;;;14.30;99.90;;;;;;6309344;28;20274;-69
2022/05/31 13:54:40;;;;;;;5.00;4.50;;;14.20;99.90;;;;;;6309246;28;20562;-68
2022/05/31 13:57:53;;;;;;;4.75;4.55;;;14.20;99.90;;;;;;6308792;28;20298;-69
2022/05/31 14:01:02;;;;;;;6.03;4.55;;;14.30;99.90;;;;;;6308846;28;20594;-69
2022/05/31 14:04:13;;;;;;;4.25;4.15;;;14.40;99.90;;;;;;6309781;28;20290;-69
2022/05/31 14:07:20;;;;;;;3.97;3.78;;;14.40;99.90;;;;;;6313459;28;20576;-68
2022/05/31 14:10:30;;;;;;;3.88;3.78;;;14.30;99.90;;;;;;6313687;28;20270;-68
2022/05/31 14:13:36;;;;;;;4.18;4.03;;;14.40;99.90;;;;;;6311813;28;20609;-67
2022/05/31 14:16:43;;;;;;;3.97;3.78;;;14.40;99.90;;;;;;6313160;28;20361;-69
2022/05/31 14:19:50;;;;;;;4.60;4.20;;;14.40;99.90;;;;;;6313246;28;20298;-69
2022/05/31 14:23:01;;;;;;;3.70;3.60;;;14.50;99.90;;;;;;6313080;28;20293;-67
2022/05/31 14:26:09;;;;;;;4.68;4.30;;;14.60;99.90;;;;;;6312962;28;20271;-67
2022/05/31 14:29:20;;;;;;;3.65;3.60;;;14.70;99.90;;;;;;6312592;28;20306;-67
2022/05/31 14:32:29;;;;;;;3.78;3.67;;;14.70;99.90;;;;;;6312234;28;20290;-68
2022/05/31 14:35:40;;;;;;;3.97;3.78;;;14.70;99.90;;;;;;6312713;28;20290;-69
2022/05/31 14:38:46;;;;;;;3.60;3.50;;;14.70;99.90;;;;;;6312608;28;20294;-68
2022/05/31 14:41:55;;;;;;;3.35;3.25;;;14.90;99.90;;;;;;6313379;28;20314;-68
2022/05/31 14:45:11;;;;;;;3.42;3.22;;;15.00;99.90;;;;;;6312251;28;20274;-69
2022/05/31 14:48:48;;;;;;;3.60;3.40;;;15.10;99.90;;;;;;6312084;28;20298;-69
2022/05/31 14:51:54;;;;;;;4.65;3.40;;;15.10;99.90;;;;;;6261793;28;20280;-68
2022/05/31 14:55:08;;;;;;;3.00;3.00;;;15.10;99.90;;;;;;6311838;28;20274;-68
2022/05/31 14:58:41;;;;;;;3.28;3.17;;;15.00;99.90;;;;;;6312489;28;20569;-70
2022/05/31 15:01:48;;;;;;;3.75;3.65;;;14.80;99.90;;;;;;6312330;28;20305;-69
2022/05/31 15:04:57;;;;;;;3.17;3.00;;;14.80;99.90;;;;;;6312069;28;20290;-69
2022/05/31 15:08:02;;;;;;;3.67;3.40;;;14.80;99.90;;;;;;6311446;28;20608;-68
2022/05/31 15:21:22;;;;;;;7.00;3.15;;;14.70;99.90;;;;;;6311522;28;20643;-69
2022/05/31 15:24:32;;;;;;;3.63;3.47;;;14.70;99.90;;;;;;6310740;28;20613;-68
2022/05/31 15:27:38;;;;;;;16.70;3.42;;;14.50;99.90;;;;;;6309450;28;20286;-69
2022/05/31 15:30:45;;;;;;;3.05;2.92;;;14.60;99.90;;;;;;6312466;28;20278;-68
2022/05/31 15:34:13;;;;;;;3.15;3.15;;;14.60;99.90;;;;;;6311014;28;20463;-69
2022/05/31 15:37:21;;;;;;;3.28;3.20;;;14.60;99.90;;;;;;6310877;28;20438;-68
2022/05/31 15:40:26;;;;;;;3.45;3.13;;;14.60;99.90;;;;;;6311940;28;20290;-68
2022/05/31 15:43:52;;;;;;;3.65;3.55;;;14.60;99.90;;;;;;6311586;28;20294;-68
2022/05/31 15:46:59;;;;;;;3.03;2.95;;;14.60;99.90;;;;;;6311314;28;20275;-70
2022/05/31 15:50:07;;;;;;;3.55;3.42;;;14.60;99.90;;;;;;6311559;28;20461;-68
2022/05/31 15:53:15;;;;;;;3.70;3.55;;;14.60;99.90;;;;;;6311643;28;20302;-69
2022/05/31 15:56:23;;;;;;;3.88;3.67;;;14.60;99.90;;;;;;6312770;28;20270;-68
2022/05/31 15:59:33;;;;;;;3.55;3.22;;;14.40;99.90;;;;;;6311271;28;20298;-68
2022/05/31 16:02:40;;;;;;;3.30;3.10;;;14.50;99.90;;;;;;6316734;28;20286;-67
2022/05/31 16:05:45;;;;;;;4.05;3.75;;;14.50;99.90;;;;;;6325707;28;20225;-67
2022/05/31 16:08:52;;;;;;;4.80;4.32;;;14.60;99.90;;;;;;6321348;28;20243;-68
2022/05/31 16:11:57;;;;;;;5.18;4.40;;;14.60;99.90;;;;;;6310770;28;20460;-68
2022/05/31 16:15:03;;;;;;;4.03;3.92;;;14.60;99.90;;;;;;6310842;28;20452;-69
2022/05/31 16:18:17;;;;;;;6.30;3.75;;;14.60;99.90;;;;;;6310288;28;20298;-68
2022/05/31 16:21:22;;;;;;;4.28;3.88;;;14.70;99.90;;;;;;6310185;28;20325;-68
2022/05/31 16:24:27;;;;;;;3.92;3.25;;;14.80;99.90;;;;;;6309788;28;20310;-68
2022/05/31 16:27:32;;;;;;;3.38;3.17;;;14.70;99.90;;;;;;6309476;28;20314;-68
2022/05/31 16:30:49;;;;;;;4.22;3.92;;;14.70;99.90;;;;;;6310785;28;20266;-68
2022/05/31 16:33:56;;;;;;;4.25;3.80;;;14.70;99.90;;;;;;6309465;28;20294;-69
2022/05/31 16:44:05;;;;;;;3.53;3.42;;;14.70;99.90;;;;;;6285765;28;20294;-69
2022/05/31 16:47:10;;;;;;;3.58;3.42;;;14.80;99.90;;;;;;6309612;28;20274;-68
2022/05/31 16:50:16;;;;;;;4.05;3.85;;;14.90;99.90;;;;;;6310575;28;20270;-69
2022/05/31 16:53:22;;;;;;;4.13;3.92;;;14.80;99.90;;;;;;6309756;28;20299;-69
2022/05/31 16:56:33;;;;;;;3.80;3.50;;;14.90;99.90;;;;;;6308990;28;20569;-68
2022/05/31 16:59:45;;;;;;;4.00;3.85;;;14.90;99.90;;;;;;6304012;28;20312;-69
2022/05/31 17:02:52;;;;;;;3.88;3.67;;;15.00;99.90;;;;;;6301199;28;20294;-68
2022/05/31 17:05:59;;;;;;;4.35;4.03;;;15.00;99.90;;;;;;6312075;28;20278;-68
2022/05/31 17:15:53;;;;;;;4.57;4.38;;;14.90;99.90;;;;;;6285600;28;20271;-69
2022/05/31 17:18:58;;;;;;;3.70;3.70;;;15.00;99.90;;;;;;6284685;28;20479;-69
2022/05/31 17:22:07;;;;;;;3.50;3.30;;;15.00;99.90;;;;;;6284567;28;20593;-69
2022/05/31 17:25:12;;;;;;;3.60;3.40;;;15.00;99.90;;;;;;6285227;28;20267;-68
2022/05/31 17:28:22;;;;;;;3.40;3.30;;;15.00;99.90;;;;;;6286772;28;20434;-68
2022/05/31 17:31:27;;;;;;;4.07;3.33;;;14.80;99.90;;;;;;6287391;28;20273;-69
2022/05/31 17:34:33;;;;;;;3.40;3.22;;;14.70;99.90;;;;;;6286631;28;20414;-69
2022/05/31 17:37:40;;;;;;;3.10;3.00;;;14.50;99.90;;;;;;6284386;28;20287;-69
2022/05/31 17:40:45;;;;;;;3.55;3.25;;;14.50;99.90;;;;;;6290127;28;20267;-69